Fairbanks, AK

7:53 PM AKST on January 30, 2015 (GMT -0900)
KAKFAIRB24 | Change Station
CLOSE
Current Station
Personal Weather Station
Location: Fairbanks, AK
Elevation: 540 ft
Nearby Weather Stations

Elev 540 ft 64.81 °N, 147.70 °W | Updated 2 minutes ago

Mostly Cloudy
Mostly Cloudy
-19.7 °F
Feels Like -20 °F
N
0.0
Wind Variable Wind from ESE
Gusts 0.0 mph

Today
High -- | Low -- °F
--% Chance of Precip.
Yesterday
High -- | Low -- °F
Precip. -- in
9:42 AM 4:26 PM
Waxing Gibbous, 87% visible
Pressure 30.86 in
Visibility 7.0 miles
Clouds Few 500 ft
Mostly Cloudy 20000 ft
Windchill -20 °F
Dew Point -24 °F
Humidity 80%
Rainfall 0.00 in
Snow Depth Not available.
UV 0 out of 12
Pollen Not available.
Air Quality Not available.
Flu Activity Not available.
METAR PAFB 310355Z 05003KT 7SM VCFG FEW005 BKN200 M31/M34 A3078 RMK PWR PLNT PLUME FEW005 SLP449

More Conditions Fewer Conditions

Pressure 30.86 in
Visibility 7.0 miles
Clouds Few 500 ft
Mostly Cloudy 20000 ft
Windchill -20 °F
Dew Point -24 °F
Humidity 80%
Rainfall 0.00 in
Snow Depth Not available.
UV 0 out of 12
Pollen Not available.
Air Quality Not available.
Flu Activity Not available.
METAR PAFB 310355Z 05003KT 7SM VCFG FEW005 BKN200 M31/M34 A3078 RMK PWR PLNT PLUME FEW005 SLP449

More Conditions Fewer Conditions

10-Day Weather Forecast

Almanac

Astronomy

Jan. 30, 2015 Rise Set
Actual Time
Civil Twilight
Nautical Twilight
Astronomical Twilight
Moon
Length of Visible Light
Length of Day
Tomorrow will be .
, % of the Moon is Illuminated

Today's Extremes

State Highs State Lows

Community

WunderPhotos

Upload Photos

1,791,999 photos uploaded!

WunderBlogs® & News

Nearby

Air Quality

  Air Quality AQ Index Pollutant
Not available.

Snow Depth

Station Depth Elevation

Earthquake Activity

City Distance Mag. Time & Date
Minimum magnitude displayed is 2.5.

Coastal Water Temperatures

Place Temperature

Nearby Weather Stations